Lockwood, Nevada
Current Conditions -  °F | °C
As of 5:55 PM on Tuesday 21 Oct 2014 (Local Time) from KRNO Reporting Station
Broken Clouds Broken Clouds  
Wind Chill: 59°   Ceiling: 20000
Heat Index: 59°   Visibility: 10mi
Dew Point: 27°   Wind: 12mph
Humidity: 29%   Direction: 40°NE
Pressure: 30.03"   Gusts: NA
Location:  39.5403°N, 119.672°W
Report Text: KRNO 220055Z 04010KT 10SM FEW110 FEW140 BKN200 BKN250 15/M03 A3003 RMK AO2 SLP147 ACSL DSNT N-NE S T01501028
Loading
Personal Weather Stations






























Interactive Weather Map
Tropical Storm Tracking
New forecast layout! Learn more

10-Day Weather Forecast

Advertisements
Track Severe Weather on mobile